San Clemente Ridge Station Data

Red Flag Warning: No
Fire Weather Zone: 242
SDGE Region: Orange County
Lat/Lon: 33.436/-117.59

Observations

Time Wind Speed/Gust Temp(F) RH Fuel Moist Fuel Temp(F) Dewpt(F) Tmax(F) Tmin(F) Accum Precip 10-min Precip SL Press(mb)
2/27 11:40pm 300 8 G 14 49° 95% - - 48° 56.2° 45.3° - - 1012.0
2/27 11:20pm 297 10 G 14 50° 95% - - 49° 56.2° 45.3° - - 1012.0
2/27 11:10pm 287 9 G 13 50° 95% - - 48° 56.2° 45.3° - - 1012.0
2/27 11:00pm 297 10 G 13 49° 95% - - 48° 56.2° 45.3° - - 1012.0
2/27 10:50pm 295 10 G 14 50° 95% - - 48° 56.2° 45.3° - - 1012.0
2/27 10:40pm 290 11 G 16 50° 95% - - 49° 56.2° 45.3° - - 1012.0
2/27 10:30pm 288 9 G 13 50° 95% - - 49° 56.2° 45.3° - - 1012.0
2/27 10:20pm 289 10 G 15 50° 95% - - 49° 56.2° 45.3° - - 1012.0
2/27 10:10pm 289 10 G 14 50° 95% - - 49° 56.2° 45.3° - - 1012.0
2/27 10:00pm 291 9 G 13 50° 95% - - 49° 56.2° 45.3° - - 1012.0
2/27 9:50pm 287 9 G 12 51° 95% - - 49° 56.2° 45.3° - - 1012.0
2/27 9:40pm 282 8 G 14 51° 95% - - 50° 56.2° 45.3° - - 1012.0
2/27 9:30pm 260 5 G 9 51° 95% - - 50° 56.2° 45.3° - - 1012.0
2/27 9:20pm 239 2 G 4 51° 95% - - 49° 56.2° 45.3° - - 1012.0
2/27 9:10pm 189 1 G 3 51° 95% - - 49° 56.2° 45.3° - - 1012.0
2/27 9:00pm 162 1 G 2 51° 95% - - 49° 56.2° 45.3° - - 1012.0
2/27 8:50pm 178 1 G 2 51° 95% - - 49° 56.2° 45.3° - - 1011.0
2/27 8:40pm 234 1 G 2 51° 95% - - 49° 56.2° 45.3° - - 1011.0
2/27 8:30pm 261 2 G 4 51° 95% - - 49° 56.2° 45.3° - - 1011.0
2/27 8:20pm 289 1 G 3 51° 95% - - 49° 56.2° 45.3° - - 1011.0
2/27 8:10pm 339 1 G 2 51° 95% - - 49° 56.2° 45.3° - - 1011.0
2/27 8:00pm 320 2 G 4 51° 95% - - 49° 56.2° 45.3° - - 1011.0
2/27 7:50pm 295 3 G 5 51° 95% - - 49° 56.2° 45.3° - - 1011.0
2/27 7:40pm 325 3 G 5 51° 95% - - 49° 56.2° 45.3° - - 1011.0
2/27 7:30pm 321 4 G 6 51° 95% - - 49° 56.2° 45.3° - - 1011.0
2/27 7:20pm 292 4 G 5 51° 95% - - 49° 56.2° 45.3° - - 1011.0
2/27 7:10pm 268 5 G 8 51° 95% - - 49° 56.2° 45.3° - - 1011.0
2/27 7:00pm 269 4 G 6 51° 95% - - 49° 56.2° 45.3° - - 1011.0
2/27 6:50pm 277 3 G 6 51° 95% - - 49° 56.2° 45.3° - - 1011.0
2/27 6:40pm 292 6 G 9 51° 95% - - 50° 56.2° 45.3° - - 1011.0
2/27 6:30pm 286 8 G 11 51° 95% - - 49° 56.2° 45.3° - - 1011.0
2/27 6:20pm 292 8 G 11 51° 95% - - 50° 56.2° 45.3° - - 1011.0
2/27 6:10pm 292 9 G 13 51° 95% - - 50° 56.2° 45.3° - - 1011.0
2/27 6:00pm 290 10 G 15 51° 95% - - 50° 56.2° 45.3° - - 1011.0
2/27 5:50pm 284 9 G 12 51° 95% - - 50° 56.2° 45.3° - - 1011.0
2/27 5:40pm 272 8 G 12 52° 95% - - 50° 56.2° 45.3° - - 1011.0
2/27 5:30pm 281 5 G 7 52° 95% - - 50° 56.2° 45.3° - - 1011.0
2/27 5:20pm 278 5 G 9 52° 95% - - 51° 56.2° 45.3° - - 1011.0
2/27 5:10pm 278 3 G 6 52° 95% - - 51° 56.2° 45.3° - - 1011.0
2/27 5:00pm 295 4 G 5 52° 95% - - 51° 56.2° 45.3° - - 1011.0
2/27 4:50pm 296 3 G 4 52° 95% - - 51° 56.2° 45.3° - - 1011.0
2/27 4:40pm 286 3 G 5 52° 95% - - 51° 56.2° 45.3° - - 1011.0
2/27 4:30pm 306 5 G 8 52° 95% - - 51° 56.2° 45.3° - - 1011.0
2/27 4:20pm 298 7 G 10 52° 95% - - 51° 56.2° 45.3° - - 1011.0
2/27 4:10pm 292 9 G 13 52° 95% - - 51° 56.2° 45.3° - - 1011.0
2/27 4:00pm 288 9 G 13 52° 95% - - 51° 56.2° 45.3° - - 1011.0
2/27 3:50pm 284 9 G 14 52° 95% - - 51° 56.2° 45.3° - - 1011.0
2/27 3:40pm 277 8 G 12 53° 95% - - 51° 56.2° 45.3° - - 1011.0
2/27 3:30pm 271 7 G 10 53° 95% - - 51° 56.2° 45.3° - - 1011.0
2/27 3:20pm 274 6 G 10 53° 95% - - 51° 56.2° 45.3° - - 1011.0
2/27 3:10pm 280 7 G 12 53° 95% - - 51° 56.2° 45.3° - - 1011.0
2/27 3:00pm 282 7 G 12 53° 95% - - 52° 56.2° 45.3° - - 1011.0
2/27 2:50pm 279 4 G 8 53° 95% - - 52° 56.2° 45.3° - - 1010.0
2/27 2:40pm 284 3 G 6 53° 95% - - 51° 56.2° 45.3° - - 1011.0
2/27 2:30pm 276 5 G 8 53° 95% - - 51° 56.2° 45.3° - - 1011.0
2/27 2:20pm 272 8 G 11 53° 95% - - 52° 56.2° 45.3° - - 1011.0
2/27 2:10pm 258 3 G 10 54° 95% - - 53° 56.2° 45.3° - - 1011.0
2/27 2:00pm 265 4 G 6 55° 95% - - 53° 56.2° 45.3° - - 1011.0
2/27 1:50pm 242 4 G 7 55° 95% - - 53° 56.2° 45.3° - - 1011.0
2/27 1:40pm 233 3 G 5 55° 95% - - 53° 56.2° 45.3° - - 1011.0
2/27 1:30pm 203 3 G 7 55° 95% - - 54° 56.2° 45.3° - - 1011.0
2/27 1:20pm 189 2 G 5 55° 95% - - 54° 56.2° 45.3° - - 1011.0
2/27 1:10pm 162 3 G 5 55° 95% - - 54° 56.2° 45.3° - - 1011.0
2/27 1:00pm 167 1 G 3 56° 95% - - 54° 56.2° 45.3° - - 1011.0
2/27 12:50pm 204 1 G 3 55° 95% - - 54° 56.1° 45.3° - - 1012.0
2/27 12:40pm 187 4 G 8 55° 95% - - 54° 55.7° 45.3° - - 1012.0
2/27 12:30pm 158 5 G 8 55° 95% - - 53° 55.5° 45.3° - - 1012.0
2/27 12:20pm 156 4 G 6 55° 95% - - 53° 55.5° 45.3° - - 1012.0
2/27 12:10pm 156 6 G 8 55° 95% - - 53° 55.3° 45.3° - - 1012.0
2/27 12:00pm 151 6 G 9 55° 95% - - 53° 55.2° 45.3° - - 1012.0
2/27 11:50am 151 6 G 10 54° 95% - - 53° 55.2° 45.3° - - 1012.0
2/27 11:40am 149 7 G 10 54° 95% - - 53° 55.2° 45.3° - - 1013.0
2/27 11:30am 155 7 G 9 54° 94% - - 53° 55.2° 45.3° - - 1013.0
2/27 11:20am 169 5 G 8 54° 94% - - 53° 55.2° 45.3° - - 1013.0
2/27 11:10am 199 2 G 6 55° 94% - - 53° 55.2° 45.3° - - 1013.0
2/27 11:00am 195 3 G 5 54° 94% - - 53° 55° 45.3° - - 1013.0
2/27 10:50am 165 2 G 4 54° 94% - - 52° 54.7° 45.3° - - 1013.0
2/27 10:40am 141 4 G 7 54° 94% - - 52° 54.2° 45.3° - - 1013.0
2/27 10:30am 142 6 G 7 53° 94% - - 52° 53.8° 45.3° - - 1013.0
2/27 10:20am 130 7 G 8 53° 94% - - 51° 53.6° 45.3° - - 1013.0
2/27 10:10am 126 8 G 10 53° 93% - - 51° 53.6° 45.3° - - 1013.0
2/27 10:00am 120 7 G 9 53° 93% - - 51° 53.6° 45.3° - - 1013.0
2/27 9:50am 116 6 G 8 53° 93% - - 51° 53.3° 45.3° - - 1013.0
2/27 9:40am 116 7 G 9 53° 93% - - 51° 53.3° 45.3° - - 1013.0
2/27 9:30am 118 7 G 9 53° 93% - - 51° 53.1° 45.3° - - 1013.0
2/27 9:20am 115 7 G 9 52° 93% - - 50° 53° 45.3° - - 1013.0
2/27 9:10am 115 7 G 9 52° 93% - - 50° 52.6° 45.3° - - 1013.0
2/27 9:00am 116 7 G 10 52° 93% - - 50° 52.5° 45.3° - - 1013.0
2/27 8:50am 117 8 G 10 52° 93% - - 50° 52.3° 45.3° - - 1013.0
2/27 8:40am 118 7 G 10 52° 93% - - 50° 52.3° 45.3° - - 1013.0
2/27 8:30am 114 8 G 10 51° 93% - - 50° 52.1° 45.3° - - 1013.0
2/27 8:20am 108 9 G 11 51° 94% - - 49° 52° 45.3° - - 1013.0
2/27 8:10am 100 8 G 10 51° 94% - - 49° 51.5° 45.3° - - 1013.0
2/27 8:00am 101 9 G 11 51° 94% - - 49° 51.1° 45.3° - - 1013.0
2/27 7:50am 105 8 G 11 50° 94% - - 49° 51° 45.3° - - 1013.0
2/27 7:40am 110 8 G 11 50° 94% - - 49° 50.8° 45.3° - - 1013.0
2/27 7:30am 110 10 G 13 50° 94% - - 48° 50.6° 45.3° - - 1013.0
2/27 7:20am 103 9 G 12 49° 95% - - 48° 50.1° 45.3° - - 1013.0
2/27 7:10am 89 10 G 12 48° 95% - - 47° 49.3° 45.3° - - 1013.0
2/27 7:00am 85 10 G 11 48° 95% - - 46° 48.8° 45.3° - - 1012.0
2/27 6:50am 78 10 G 12 48° 95% - - 46° 48.8° 45.3° - - 1012.0
2/27 6:40am 67 9 G 10 47° 95% - - 46° 48.8° 45.3° - - 1012.0
2/27 6:30am 61 8 G 10 47° 94% - - 46° 48.8° 45.3° - - 1013.0
2/27 6:20am 69 7 G 9 48° 94% - - 46° 48.8° 45.3° - - 1013.0
2/27 6:10am 69 7 G 9 48° 94% - - 46° 48.8° 45.3° - - 1013.0
2/27 6:00am 78 7 G 9 48° 94% - - 46° 48.8° 45.3° - - 1013.0
2/27 5:50am 89 7 G 9 47° 94% - - 46° 48.8° 45.3° - - 1013.0
2/27 5:40am 77 8 G 10 47° 94% - - 46° 48.8° 45.3° - - 1013.0
2/27 5:30am 70 8 G 10 47° 94% - - 45° 48.8° 45.3° - - 1013.0
2/27 5:20am 71 9 G 11 47° 94% - - 45° 48.8° 45.3° - - 1013.0
2/27 5:10am 69 9 G 11 47° 94% - - 45° 48.8° 45.3° - - 1013.0
2/27 5:00am 68 10 G 10 46° 94% - - 45° 48.8° 45.3° - - 1013.0
2/27 4:50am 69 10 G 12 46° 94% - - 45° 48.8° 45.3° - - 1013.0
2/27 4:40am 70 10 G 12 46° 94% - - 44° 48.8° 45.3° - - 1013.0
2/27 4:30am 66 9 G 11 46° 93% - - 44° 48.8° 45.3° - - 1013.0
2/27 4:20am 62 9 G 11 46° 93% - - 44° 48.8° 45.3° - - 1013.0
2/27 4:10am 72 8 G 10 46° 93% - - 44° 48.8° 45.3° - - 1013.0
2/27 4:00am 81 8 G 12 46° 93% - - 44° 48.8° 45.3° - - 1013.0
2/27 3:50am 80 7 G 10 46° 92% - - 44° 48.8° 45.3° - - 1013.0
2/27 3:40am 84 8 G 13 46° 92% - - 44° 48.8° 45.3° - - 1013.0
2/27 3:30am 86 10 G 15 46° 91% - - 43° 48.8° 45.3° - - 1013.0
2/27 3:20am 104 8 G 13 46° 90% - - 43° 48.8° 45.3° - - 1014.0
2/27 3:10am 106 8 G 12 46° 87% - - 43° 48.8° 45.6° - - 1014.0
2/27 3:00am 107 7 G 12 47° 83% - - 42° 48.8° 46° - - 1014.0
2/27 2:50am 106 8 G 11 48° 78% - - 41° 48.8° 46.7° - - 1014.0
2/27 2:40am 93 6 G 10 48° 76% - - 41° 48.8° 46.7° - - 1014.0
2/27 2:30am 82 4 G 5 48° 75% - - 41° 48.8° 46.7° - - 1015.0
2/27 2:20am 90 5 G 6 48° 76% - - 41° 48.8° 46.7° - - 1015.0
2/27 2:10am 86 6 G 8 48° 77% - - 41° 48.8° 46.7° - - 1015.0
2/27 2:00am 85 6 G 8 47° 79% - - 41° 48.8° 46.7° - - 1015.0
2/27 1:50am 96 7 G 10 47° 80% - - 42° 48.8° 46.7° - - 1015.0
2/27 1:40am 110 6 G 9 47° 81% - - 42° 48.8° 46.7° - - 1015.0
2/27 1:30am 98 7 G 9 48° 80% - - 42° 48.8° 46.7° - - 1015.0
2/27 1:20am 92 7 G 9 48° 80% - - 42° 48.8° 46.7° - - 1016.0
2/27 1:10am 91 8 G 10 48° 81% - - 42° 48.8° 46.7° - - 1016.0
2/27 1:00am 95 8 G 10 48° 81% - - 42° 48.8° 46.7° - - 1016.0
2/27 12:50am 92 7 G 10 48° 80% - - 42° 48.8° 46.7° - - 1016.0
2/27 12:40am 96 7 G 10 48° 81% - - 42° 48.8° 46.7° - - 1016.0
2/27 12:30am 107 7 G 10 48° 83% - - 43° 48.2° 46.7° - - 1016.0
2/27 12:20am 112 7 G 10 47° 83% - - 43° 48.1° 46.7° - - 1016.0
2/27 12:10am 101 7 G 11 47° 83% - - 42° 48° 46.7° - - 1016.0
2/27 12:00am 112 8 G 12 47° 83% - - 42° 54.6° 45.7° - - 1016.0
2/26 11:50pm 104 8 G 11 48° 82% - - 42° 54.6° 45.7° - - 1016.0
2/26 11:40pm 101 7 G 10 48° 82% - - 42° 54.6° 45.7° - - 1016.0
2/26 11:30pm 105 9 G 13 48° 81% - - 42° 54.6° 45.7° - - 1016.0
2/26 11:20pm 112 8 G 11 48° 80% - - 42° 54.6° 45.7° - - 1016.0
2/26 11:10pm 106 7 G 10 48° 79% - - 42° 54.6° 45.7° - - 1016.0
2/26 11:00pm 108 7 G 9 48° 78% - - 42° 54.6° 45.7° - - 1016.0
2/26 10:50pm 113 6 G 8 48° 78% - - 42° 54.6° 45.7° - - 1016.0
2/26 10:40pm 110 6 G 7 49° 77% - - 42° 54.6° 45.7° - - 1016.0
2/26 10:30pm 99 6 G 7 49° 77% - - 42° 54.6° 45.7° - - 1016.0
2/26 10:20pm 91 5 G 7 49° 76% - - 42° 54.6° 45.7° - - 1016.0
2/26 10:10pm 90 5 G 7 49° 76% - - 42° 54.6° 45.7° - - 1016.0
2/26 10:00pm 91 6 G 8 49° 75% - - 41° 54.6° 45.7° - - 1016.0
2/26 9:50pm 99 5 G 7 49° 74% - - 41° 54.6° 45.7° - - 1016.0
2/26 9:40pm 94 5 G 7 49° 74% - - 41° 54.6° 45.7° - - 1016.0
2/26 9:30pm 91 6 G 7 49° 74% - - 41° 54.6° 45.7° - - 1016.0
2/26 9:20pm 94 5 G 7 49° 73% - - 41° 54.6° 45.7° - - 1016.0
2/26 9:10pm 95 5 G 6 49° 71% - - 40° 54.6° 45.7° - - 1016.0
2/26 9:00pm 96 4 G 5 50° 70% - - 40° 54.6° 45.7° - - 1016.0
2/26 8:50pm 110 3 G 4 50° 69% - - 40° 54.6° 45.7° - - 1017.0
2/26 8:40pm 116 3 G 4 50° 69% - - 40° 54.6° 45.7° - - 1017.0
2/26 8:30pm 107 3 G 5 50° 69% - - 40° 54.6° 45.7° - - 1017.0
2/26 8:20pm 178 3 G 6 50° 65% - - 39° 54.6° 45.7° - - 1016.0
2/26 8:10pm 200 2 G 7 50° 66% - - 39° 54.6° 45.7° - - 1016.0
2/26 8:00pm 197 2 G 4 50° 66% - - 39° 54.6° 45.7° - - 1017.0
2/26 7:50pm 222 2 G 5 50° 65% - - 39° 54.6° 45.7° - - 1016.0
2/26 7:40pm 231 2 G 5 50° 68% - - 40° 54.6° 45.7° - - 1016.0
2/26 7:30pm 231 3 G 6 50° 69% - - 40° 54.6° 45.7° - - 1017.0
2/26 7:20pm 223 3 G 5 50° 69% - - 40° 54.6° 45.7° - - 1016.0
2/26 7:10pm 221 3 G 4 50° 70% - - 40° 54.6° 45.7° - - 1016.0
2/26 7:00pm 229 3 G 4 50° 70% - - 41° 54.6° 45.7° - - 1016.0
2/26 6:50pm 225 2 G 4 50° 71% - - 40° 54.6° 45.7° - - 1016.0
2/26 6:40pm 198 3 G 7 50° 70% - - 40° 54.6° 45.7° - - 1016.0
2/26 6:30pm 203 3 G 5 50° 70% - - 41° 54.6° 45.7° - - 1016.0
2/26 6:20pm 208 4 G 8 50° 70% - - 41° 54.6° 45.7° - - 1016.0
2/26 6:10pm 216 5 G 10 50° 71% - - 41° 54.6° 45.7° - - 1016.0
2/26 6:00pm 227 4 G 7 50° 72% - - 41° 54.6° 45.7° - - 1016.0
2/26 5:50pm 218 4 G 8 50° 73% - - 42° 54.6° 45.7° - - 1016.0
2/26 5:40pm 220 3 G 6 50° 74% - - 42° 54.6° 45.7° - - 1016.0
2/26 5:30pm 210 3 G 7 51° 73% - - 42° 54.6° 45.7° - - 1016.0
2/26 5:20pm 219 3 G 5 51° 72% - - 42° 54.6° 45.7° - - 1016.0
2/26 5:10pm 212 3 G 5 51° 72% - - 42° 54.6° 45.7° - - 1015.0
2/26 5:00pm 214 4 G 6 51° 71% - - 42° 54.6° 45.7° - - 1015.0